Time;durP1;ratioP1;P1;durP2;ratioP2;P2;SDS_P1;SDS_P2;PMS_P1;PMS_P2;Temp;Humidity;BMP_temperature;BMP_pressure;BME280_temperature;BME280_humidity;BME280_pressure;Samples;Min_cycle;Max_cycle;Signal;HPM_P1;HPM_P2
2023/04/05 00:01:18;;;;;;;10.80;8.50;;;;;;;;;;107806;273;39903;-34
2023/04/05 00:03:53;;;;;;;10.60;9.00;;;;;;;;;;107584;273;176857;-34
2023/04/05 00:06:31;;;;;;;9.80;8.20;;;;;;;;;;107802;273;44018;-34
2023/04/05 00:09:06;;;;;;;10.30;9.20;;;;;;;;;;107754;280;42502;-34
2023/04/05 00:11:41;;;;;;;10.30;8.40;;;;;;;;;;107789;281;39901;-34
2023/04/05 00:14:17;;;;;;;10.50;8.80;;;;;;;;;;107772;280;39684;-34
2023/04/05 00:16:53;;;;;;;10.50;8.40;;;;;;;;;;107805;281;43029;-34
2023/04/05 00:19:32;;;;;;;10.90;8.90;;;;;;;;;;107757;273;41941;-34
2023/04/05 00:22:09;;;;;;;10.70;8.90;;;;;;;;;;107814;273;39923;-34
2023/04/05 00:24:44;;;;;;;10.20;8.60;;;;;;;;;;107791;281;39676;-34
2023/04/05 00:27:21;;;;;;;10.40;8.80;;;;;;;;;;107801;281;43009;-34
2023/04/05 00:29:56;;;;;;;10.80;9.60;;;;;;;;;;107766;273;42157;-34
2023/04/05 00:32:31;;;;;;;10.80;9.10;;;;;;;;;;107819;281;39921;-34
2023/04/05 00:35:07;;;;;;;10.50;8.70;;;;;;;;;;107791;273;39751;-35
2023/04/05 00:37:44;;;;;;;10.30;9.10;;;;;;;;;;107841;281;44185;-35
2023/04/05 00:40:20;;;;;;;11.50;8.90;;;;;;;;;;107768;280;48349;-35
2023/04/05 00:42:53;;;;;;;10.90;9.20;;;;;;;;;;107793;273;39995;-35
2023/04/05 00:45:33;;;;;;;10.40;8.80;;;;;;;;;;107822;282;39464;-35
2023/04/05 00:48:11;;;;;;;10.70;8.80;;;;;;;;;;107786;281;42891;-35
2023/04/05 00:50:51;;;;;;;10.10;8.40;;;;;;;;;;107845;273;48991;-34
2023/04/05 00:53:30;;;;;;;10.60;9.10;;;;;;;;;;107159;280;897194;-34
2023/04/05 00:56:12;;;;;;;10.20;9.00;;;;;;;;;;107785;273;39686;-34
2023/04/05 00:58:47;;;;;;;9.90;8.70;;;;;;;;;;107750;273;42849;-34
2023/04/05 01:01:26;;;;;;;10.20;8.90;;;;;;;;;;107817;281;43441;-34
2023/04/05 01:04:06;;;;;;;10.80;8.50;;;;;;;;;;107702;273;175774;-34
2023/04/05 01:07:05;;;;;;;11.70;9.40;;;;;;;;;;107822;273;40125;-34
2023/04/05 01:09:52;;;;;;;11.30;9.20;;;;;;;;;;107761;273;42827;-34
2023/04/05 01:12:31;;;;;;;11.10;9.10;;;;;;;;;;107767;280;42417;-34
2023/04/05 01:15:13;;;;;;;10.50;9.20;;;;;;;;;;107638;273;175733;-34
2023/04/05 01:17:48;;;;;;;11.00;8.60;;;;;;;;;;107778;281;39738;-34
2023/04/05 01:20:24;;;;;;;10.50;9.40;;;;;;;;;;107779;273;42987;-34
2023/04/05 01:23:17;;;;;;;10.40;8.90;;;;;;;;;;107745;273;42180;-34
2023/04/05 01:26:29;;;;;;;10.40;8.70;;;;;;;;;;107773;280;40063;-33
2023/04/05 01:29:44;;;;;;;10.40;8.50;;;;;;;;;;107782;280;39908;-34
2023/04/05 01:32:42;;;;;;;10.30;9.00;;;;;;;;;;107786;281;49157;-34
2023/04/05 01:35:25;;;;;;;10.20;8.90;;;;;;;;;;107788;273;43340;-34
2023/04/05 01:38:05;;;;;;;10.40;9.00;;;;;;;;;;107430;274;455040;-34
2023/04/05 01:40:41;;;;;;;10.80;9.00;;;;;;;;;;107725;281;39932;-34
2023/04/05 01:43:25;;;;;;;11.10;9.40;;;;;;;;;;107762;281;42925;-34
2023/04/05 01:46:00;;;;;;;11.10;9.10;;;;;;;;;;107848;273;42225;-34
2023/04/05 01:48:36;;;;;;;10.70;9.00;;;;;;;;;;107890;273;38861;-34
2023/04/05 01:51:10;;;;;;;10.40;9.30;;;;;;;;;;107815;273;39853;-34
2023/04/05 01:53:45;;;;;;;10.70;8.90;;;;;;;;;;107925;281;43405;-34
2023/04/05 01:56:19;;;;;;;10.60;9.00;;;;;;;;;;107248;278;897970;-34
2023/04/05 01:58:56;;;;;;;10.60;8.80;;;;;;;;;;107885;273;38553;-34
2023/04/05 02:01:32;;;;;;;11.60;9.20;;;;;;;;;;107878;277;39757;-34
2023/04/05 02:04:10;;;;;;;11.70;9.30;;;;;;;;;;107903;273;44056;-34
2023/04/05 02:06:44;;;;;;;10.60;8.70;;;;;;;;;;107853;281;42417;-34
2023/04/05 02:09:18;;;;;;;10.60;9.30;;;;;;;;;;107888;281;38780;-34
2023/04/05 02:11:55;;;;;;;11.00;8.80;;;;;;;;;;107857;281;40818;-34
2023/04/05 02:14:28;;;;;;;10.30;8.70;;;;;;;;;;107899;281;44056;-34
2023/04/05 02:17:04;;;;;;;10.30;9.00;;;;;;;;;;107903;281;42157;-34
2023/04/05 02:19:40;;;;;;;11.00;9.20;;;;;;;;;;107879;273;39928;-34
2023/04/05 02:22:15;;;;;;;10.20;8.70;;;;;;;;;;107828;278;39702;-34
2023/04/05 02:24:49;;;;;;;10.10;8.90;;;;;;;;;;107874;281;44231;-34
2023/04/05 02:27:24;;;;;;;10.80;8.90;;;;;;;;;;107899;273;42177;-34
2023/04/05 02:29:58;;;;;;;10.60;8.60;;;;;;;;;;107860;281;38814;-34
2023/04/05 02:32:34;;;;;;;10.20;8.80;;;;;;;;;;107837;281;39863;-34
2023/04/05 02:35:16;;;;;;;10.00;8.80;;;;;;;;;;107911;273;44525;-34
2023/04/05 02:37:52;;;;;;;10.40;8.80;;;;;;;;;;107910;281;42099;-34
2023/04/05 02:40:26;;;;;;;9.90;8.60;;;;;;;;;;107885;281;38535;-34
2023/04/05 02:43:02;;;;;;;10.10;8.40;;;;;;;;;;107874;280;39464;-34
2023/04/05 02:45:36;;;;;;;10.10;8.50;;;;;;;;;;107899;281;44206;-34
2023/04/05 02:48:12;;;;;;;10.50;8.70;;;;;;;;;;107871;281;42231;-34
2023/04/05 02:50:50;;;;;;;10.80;9.10;;;;;;;;;;107946;281;40001;-34
2023/04/05 02:53:25;;;;;;;10.60;8.50;;;;;;;;;;107818;273;39734;-34
2023/04/05 02:56:01;;;;;;;10.30;8.50;;;;;;;;;;107922;273;42917;-34
2023/04/05 02:58:36;;;;;;;10.90;8.90;;;;;;;;;;107956;281;44678;-34
2023/04/05 03:01:12;;;;;;;9.90;8.50;;;;;;;;;;107906;280;39251;-34
2023/04/05 03:03:50;;;;;;;10.10;8.60;;;;;;;;;;107878;277;39759;-34
2023/04/05 03:06:26;;;;;;;9.90;8.40;;;;;;;;;;107891;281;43934;-34
2023/04/05 03:09:03;;;;;;;9.90;8.50;;;;;;;;;;107924;281;42840;-34
2023/04/05 03:11:37;;;;;;;10.20;8.30;;;;;;;;;;107959;281;40008;-34
2023/04/05 03:14:13;;;;;;;10.30;8.60;;;;;;;;;;107793;281;45560;-34
2023/04/05 03:16:49;;;;;;;10.10;8.40;;;;;;;;;;107806;281;43022;-34
2023/04/05 03:19:26;;;;;;;10.40;8.20;;;;;;;;;;107845;277;42294;-34
2023/04/05 03:22:02;;;;;;;10.70;8.80;;;;;;;;;;107836;273;38784;-34
2023/04/05 03:24:37;;;;;;;10.00;8.20;;;;;;;;;;107698;281;175758;-34
2023/04/05 03:27:13;;;;;;;10.00;8.50;;;;;;;;;;107846;281;42848;-34
2023/04/05 03:29:49;;;;;;;10.10;8.50;;;;;;;;;;107786;282;42285;-34
2023/04/05 03:32:25;;;;;;;10.50;8.40;;;;;;;;;;107738;277;38864;-34
2023/04/05 03:35:04;;;;;;;11.10;8.60;;;;;;;;;;107803;280;39659;-34
2023/04/05 03:37:40;;;;;;;11.10;8.70;;;;;;;;;;107833;281;42974;-34
2023/04/05 03:40:18;;;;;;;10.50;8.40;;;;;;;;;;107800;280;42217;-34
2023/04/05 03:42:56;;;;;;;10.90;8.60;;;;;;;;;;107766;278;38922;-34
2023/04/05 03:45:33;;;;;;;10.40;8.90;;;;;;;;;;107807;273;40676;-34
2023/04/05 03:48:12;;;;;;;10.70;8.50;;;;;;;;;;107839;273;43031;-34
2023/04/05 03:50:48;;;;;;;10.80;8.80;;;;;;;;;;107843;273;42197;-34
2023/04/05 03:53:23;;;;;;;9.60;8.00;;;;;;;;;;107820;278;38782;-34
2023/04/05 03:56:00;;;;;;;11.10;8.10;;;;;;;;;;107846;273;39719;-34
2023/04/05 03:58:36;;;;;;;11.40;8.70;;;;;;;;;;107810;280;42879;-34
2023/04/05 04:01:13;;;;;;;11.20;8.70;;;;;;;;;;107892;281;42402;-34
2023/04/05 04:03:49;;;;;;;10.70;8.60;;;;;;;;;;107842;273;38840;-34
2023/04/05 04:06:29;;;;;;;10.60;8.50;;;;;;;;;;107826;281;39728;-34
2023/04/05 04:09:06;;;;;;;10.30;8.50;;;;;;;;;;107844;273;42658;-34
2023/04/05 04:11:39;;;;;;;10.30;8.30;;;;;;;;;;107861;280;42316;-34
2023/04/05 04:14:16;;;;;;;10.80;8.40;;;;;;;;;;107781;281;38925;-34
2023/04/05 04:16:51;;;;;;;10.00;8.30;;;;;;;;;;107813;280;39801;-34
2023/04/05 04:19:28;;;;;;;10.30;8.40;;;;;;;;;;107806;281;43031;-34
2023/04/05 04:22:08;;;;;;;10.60;8.00;;;;;;;;;;107853;273;42207;-34
2023/04/05 04:24:45;;;;;;;10.30;8.10;;;;;;;;;;107843;274;38939;-34
2023/04/05 04:27:20;;;;;;;10.50;8.40;;;;;;;;;;107853;273;39737;-34
2023/04/05 04:30:00;;;;;;;10.10;8.10;;;;;;;;;;107833;273;42881;-34
2023/04/05 04:35:29;;;;;;;9.40;7.90;;;;;;;;;;107817;281;40169;-34
2023/04/05 04:38:09;;;;;;;10.70;8.60;;;;;;;;;;107884;281;40893;-34
2023/04/05 04:40:46;;;;;;;10.60;8.50;;;;;;;;;;107720;281;196245;-34
2023/04/05 04:43:25;;;;;;;10.40;8.20;;;;;;;;;;107836;273;42677;-34
2023/04/05 04:46:05;;;;;;;10.50;8.10;;;;;;;;;;107819;281;39920;-34
2023/04/05 04:48:41;;;;;;;10.30;8.70;;;;;;;;;;107856;273;40908;-34
2023/04/05 04:51:17;;;;;;;9.50;7.90;;;;;;;;;;107877;281;45124;-34
2023/04/05 04:53:55;;;;;;;10.50;8.20;;;;;;;;;;107884;281;42261;-34
2023/04/05 04:56:31;;;;;;;10.80;8.40;;;;;;;;;;107828;281;46328;-34
2023/04/05 04:59:08;;;;;;;10.40;8.50;;;;;;;;;;107868;273;41020;-34
2023/04/05 05:01:43;;;;;;;10.40;8.10;;;;;;;;;;107851;281;42656;-34
2023/04/05 05:04:19;;;;;;;10.10;8.10;;;;;;;;;;107824;273;42210;-34
2023/04/05 05:06:57;;;;;;;10.60;8.70;;;;;;;;;;107832;273;39936;-34
2023/04/05 05:09:34;;;;;;;10.60;8.10;;;;;;;;;;107744;281;175705;-34
2023/04/05 05:12:09;;;;;;;10.40;9.00;;;;;;;;;;107828;273;43086;-34
2023/04/05 05:14:45;;;;;;;9.80;8.30;;;;;;;;;;107806;281;42221;-34
2023/04/05 05:17:19;;;;;;;10.30;8.60;;;;;;;;;;107848;281;39889;-34
2023/04/05 05:19:55;;;;;;;10.30;8.30;;;;;;;;;;107835;281;40928;-34
2023/04/05 05:22:30;;;;;;;10.50;8.50;;;;;;;;;;107883;273;42653;-34
2023/04/05 05:25:11;;;;;;;10.00;8.20;;;;;;;;;;107787;280;42226;-34
2023/04/05 05:27:51;;;;;;;10.60;8.20;;;;;;;;;;107765;280;38781;-34
2023/04/05 05:30:25;;;;;;;10.50;8.40;;;;;;;;;;107803;281;39707;-34
2023/04/05 05:33:02;;;;;;;10.40;8.40;;;;;;;;;;107822;280;43052;-34
2023/04/05 05:35:40;;;;;;;9.70;8.30;;;;;;;;;;107781;273;42391;-34
2023/04/05 05:38:16;;;;;;;10.20;8.10;;;;;;;;;;107795;281;39823;-34
2023/04/05 05:40:57;;;;;;;10.00;8.40;;;;;;;;;;107797;281;40860;-34
2023/04/05 05:43:33;;;;;;;10.90;8.40;;;;;;;;;;107844;281;42881;-34
2023/04/05 05:46:08;;;;;;;10.90;8.60;;;;;;;;;;107782;273;42264;-34
2023/04/05 05:48:44;;;;;;;10.60;8.80;;;;;;;;;;107871;277;39951;-34
2023/04/05 05:51:18;;;;;;;10.70;8.50;;;;;;;;;;107929;273;41053;-34
2023/04/05 05:53:54;;;;;;;10.50;8.40;;;;;;;;;;107914;281;42904;-34
2023/04/05 05:56:28;;;;;;;11.60;8.60;;;;;;;;;;107861;273;43636;-34
2023/04/05 05:59:03;;;;;;;10.00;8.50;;;;;;;;;;107951;282;40014;-34
2023/04/05 06:01:45;;;;;;;10.40;8.80;;;;;;;;;;107955;281;39690;-34
2023/04/05 06:04:21;;;;;;;10.00;8.40;;;;;;;;;;107907;278;44092;-34
2023/04/05 06:06:57;;;;;;;10.30;8.70;;;;;;;;;;107868;281;42314;-34
2023/04/05 06:09:34;;;;;;;10.40;8.70;;;;;;;;;;107903;273;39917;-34
2023/04/05 06:12:11;;;;;;;10.90;8.80;;;;;;;;;;107893;273;39512;-34
2023/04/05 06:14:45;;;;;;;10.60;9.00;;;;;;;;;;107893;273;44168;-34
2023/04/05 06:17:20;;;;;;;11.70;9.00;;;;;;;;;;107855;281;43636;-34
2023/04/05 06:19:55;;;;;;;10.70;8.80;;;;;;;;;;107868;281;38935;-34
2023/04/05 06:22:30;;;;;;;10.60;8.10;;;;;;;;;;107880;281;41133;-34
2023/04/05 06:25:07;;;;;;;10.30;8.70;;;;;;;;;;107918;281;43920;-34
2023/04/05 06:27:41;;;;;;;10.80;8.50;;;;;;;;;;107859;281;42615;-34
2023/04/05 06:30:19;;;;;;;11.00;8.90;;;;;;;;;;107847;281;38804;-34
2023/04/05 06:32:54;;;;;;;10.60;8.70;;;;;;;;;;107921;277;40863;-34
2023/04/05 06:35:29;;;;;;;11.70;8.70;;;;;;;;;;107890;281;43951;-34
2023/04/05 06:38:03;;;;;;;11.00;8.60;;;;;;;;;;107847;273;42528;-34
2023/04/05 06:40:39;;;;;;;11.70;8.30;;;;;;;;;;107824;277;175712;-34
2023/04/05 06:43:16;;;;;;;11.30;9.00;;;;;;;;;;107881;273;39860;-35
2023/04/05 06:45:50;;;;;;;12.70;8.70;;;;;;;;;;107909;281;43992;-34
2023/04/05 06:48:28;;;;;;;13.40;9.60;;;;;;;;;;107840;281;42292;-34
2023/04/05 06:51:07;;;;;;;11.80;9.10;;;;;;;;;;107759;281;39010;-34
2023/04/05 06:53:46;;;;;;;11.00;8.90;;;;;;;;;;107850;281;39789;-34
2023/04/05 06:56:22;;;;;;;12.80;8.90;;;;;;;;;;107776;281;42975;-34
2023/04/05 06:58:58;;;;;;;12.10;9.20;;;;;;;;;;107831;281;48330;-34
2023/04/05 07:01:32;;;;;;;11.60;9.10;;;;;;;;;;107792;281;38853;-34
2023/04/05 07:04:06;;;;;;;11.90;9.20;;;;;;;;;;107800;280;39753;-34
2023/04/05 07:06:40;;;;;;;12.20;9.30;;;;;;;;;;107778;281;43014;-34
2023/04/05 07:09:14;;;;;;;11.50;9.00;;;;;;;;;;107757;277;49559;-34
2023/04/05 07:11:48;;;;;;;12.50;9.60;;;;;;;;;;107791;281;38877;-34
2023/04/05 07:14:25;;;;;;;13.70;9.20;;;;;;;;;;107782;273;39901;-34
2023/04/05 07:17:00;;;;;;;14.50;9.90;;;;;;;;;;107778;281;42872;-34
2023/04/05 07:19:34;;;;;;;13.20;9.60;;;;;;;;;;107773;281;48713;-34
2023/04/05 07:22:08;;;;;;;12.40;9.50;;;;;;;;;;107819;281;38749;-34
2023/04/05 07:24:44;;;;;;;13.10;9.60;;;;;;;;;;107768;281;39728;-34
2023/04/05 07:27:18;;;;;;;16.40;10.40;;;;;;;;;;107788;282;43017;-34
2023/04/05 07:29:55;;;;;;;14.00;10.10;;;;;;;;;;107751;281;49640;-34
2023/04/05 07:32:34;;;;;;;14.50;10.50;;;;;;;;;;107775;281;38863;-34
2023/04/05 07:35:09;;;;;;;14.50;10.30;;;;;;;;;;107792;281;40050;-34
2023/04/05 07:37:45;;;;;;;14.50;10.40;;;;;;;;;;107761;281;44040;-34
2023/04/05 07:40:22;;;;;;;13.80;10.50;;;;;;;;;;107830;277;44675;-34
2023/04/05 07:42:59;;;;;;;14.20;10.40;;;;;;;;;;107799;281;38925;-34
2023/04/05 07:45:35;;;;;;;13.70;10.50;;;;;;;;;;107813;281;39724;-34
2023/04/05 07:48:09;;;;;;;14.50;10.30;;;;;;;;;;107811;273;43001;-34
2023/04/05 07:50:46;;;;;;;14.20;10.40;;;;;;;;;;107824;277;42193;-34
2023/04/05 07:53:20;;;;;;;14.30;10.60;;;;;;;;;;107779;281;38770;-34
2023/04/05 07:55:57;;;;;;;14.10;9.90;;;;;;;;;;107786;273;39860;-34
2023/04/05 07:58:32;;;;;;;14.80;10.00;;;;;;;;;;107761;281;43035;-36
2023/04/05 08:01:09;;;;;;;14.10;9.80;;;;;;;;;;107798;273;43967;-35
2023/04/05 08:03:44;;;;;;;14.10;10.10;;;;;;;;;;107761;273;38767;-34
2023/04/05 08:06:22;;;;;;;13.80;10.00;;;;;;;;;;107769;281;39453;-35
2023/04/05 08:08:56;;;;;;;12.60;9.60;;;;;;;;;;107688;277;42875;-36
2023/04/05 08:11:29;;;;;;;13.90;10.00;;;;;;;;;;107791;273;44433;-35
2023/04/05 08:14:03;;;;;;;14.10;9.70;;;;;;;;;;107788;273;39927;-36
2023/04/05 08:16:37;;;;;;;12.50;9.30;;;;;;;;;;107810;281;39873;-35
2023/04/05 08:19:12;;;;;;;12.90;9.40;;;;;;;;;;107771;281;44088;-35
2023/04/05 08:21:48;;;;;;;12.20;9.50;;;;;;;;;;107918;280;42205;-35
2023/04/05 08:24:22;;;;;;;13.10;9.10;;;;;;;;;;108050;281;27218;-36
2023/04/05 08:26:56;;;;;;;13.30;9.20;;;;;;;;;;108038;280;28363;-35
2023/04/05 08:29:29;;;;;;;12.00;8.90;;;;;;;;;;108037;281;28410;-35
2023/04/05 08:32:03;;;;;;;11.60;9.10;;;;;;;;;;108111;273;28948;-35
2023/04/05 08:34:38;;;;;;;12.80;8.40;;;;;;;;;;108220;280;27197;-35
2023/04/05 08:37:12;;;;;;;13.00;8.70;;;;;;;;;;108105;281;28085;-36
2023/04/05 08:39:49;;;;;;;11.10;8.50;;;;;;;;;;108048;273;28766;-34
2023/04/05 08:42:36;;;;;;;11.50;8.30;;;;;;;;;;108143;273;28095;-35
2023/04/05 08:45:17;;;;;;;12.20;8.30;;;;;;;;;;108118;280;27680;-34
2023/04/05 08:47:54;;;;;;;11.40;8.40;;;;;;;;;;108091;273;29322;-35
2023/04/05 08:50:30;;;;;;;11.00;8.40;;;;;;;;;;108068;280;28723;-35
2023/04/05 08:53:09;;;;;;;11.20;7.90;;;;;;;;;;108099;273;27742;-37
2023/04/05 08:55:48;;;;;;;11.20;8.10;;;;;;;;;;108050;273;27286;-36
2023/04/05 08:58:24;;;;;;;10.80;7.30;;;;;;;;;;108060;273;28340;-35
2023/04/05 09:01:01;;;;;;;10.90;7.80;;;;;;;;;;108013;280;28648;-36
2023/04/05 09:03:41;;;;;;;9.90;7.70;;;;;;;;;;108035;273;27918;-36
2023/04/05 09:06:17;;;;;;;10.60;7.80;;;;;;;;;;108036;280;27181;-36
2023/04/05 09:08:55;;;;;;;9.80;7.00;;;;;;;;;;108040;280;28327;-36
2023/04/05 09:11:32;;;;;;;10.20;7.20;;;;;;;;;;108021;281;28587;-36
2023/04/05 09:14:11;;;;;;;10.90;7.40;;;;;;;;;;108052;281;27909;-36
2023/04/05 09:16:48;;;;;;;9.00;6.70;;;;;;;;;;108046;272;27226;-37
2023/04/05 09:19:23;;;;;;;9.70;7.00;;;;;;;;;;108105;273;28131;-36
2023/04/05 09:22:05;;;;;;;9.40;7.00;;;;;;;;;;107997;274;34630;-36
2023/04/05 09:24:42;;;;;;;9.90;6.50;;;;;;;;;;108055;272;27881;-36
2023/04/05 09:27:20;;;;;;;9.10;6.40;;;;;;;;;;108022;273;26954;-36
2023/04/05 09:29:53;;;;;;;8.70;6.40;;;;;;;;;;108011;280;28086;-36
2023/04/05 09:32:29;;;;;;;9.30;6.50;;;;;;;;;;107998;280;34713;-35
2023/04/05 09:35:04;;;;;;;9.10;6.60;;;;;;;;;;108043;280;28070;-36
2023/04/05 09:37:38;;;;;;;8.60;6.40;;;;;;;;;;107661;281;435219;-35
2023/04/05 09:40:14;;;;;;;9.00;6.40;;;;;;;;;;107990;277;28932;-35
2023/04/05 09:42:49;;;;;;;8.90;6.10;;;;;;;;;;108044;279;36035;-37
2023/04/05 09:45:30;;;;;;;8.90;6.10;;;;;;;;;;108059;279;27853;-37
2023/04/05 09:48:06;;;;;;;8.80;6.10;;;;;;;;;;108056;280;26935;-36
2023/04/05 09:50:42;;;;;;;8.60;5.70;;;;;;;;;;108097;280;28072;-36
2023/04/05 09:53:18;;;;;;;8.50;5.90;;;;;;;;;;108080;273;28608;-38
2023/04/05 09:55:52;;;;;;;8.90;5.90;;;;;;;;;;108120;273;27899;-36
2023/04/05 09:58:26;;;;;;;8.20;5.70;;;;;;;;;;108122;281;27283;-34
2023/04/05 10:01:01;;;;;;;7.70;5.40;;;;;;;;;;107951;278;175238;-35
2023/04/05 10:03:51;;;;;;;8.20;5.70;;;;;;;;;;108139;278;28596;-35
2023/04/05 10:06:36;;;;;;;8.10;5.50;;;;;;;;;;108076;280;27990;-34
2023/04/05 10:09:16;;;;;;;7.80;5.40;;;;;;;;;;108178;281;27205;-34
2023/04/05 10:11:52;;;;;;;7.50;5.00;;;;;;;;;;108058;273;27902;-34
2023/04/05 10:14:29;;;;;;;7.70;5.00;;;;;;;;;;108116;273;28596;-34
2023/04/05 10:17:16;;;;;;;8.40;5.60;;;;;;;;;;108035;281;27951;-35
2023/04/05 10:20:10;;;;;;;7.40;5.00;;;;;;;;;;108000;274;26921;-33
2023/04/05 10:23:01;;;;;;;7.70;4.90;;;;;;;;;;108019;280;29233;-35
2023/04/05 10:25:52;;;;;;;6.70;5.00;;;;;;;;;;108077;281;29834;-37
2023/04/05 10:28:39;;;;;;;8.80;5.00;;;;;;;;;;108006;273;27908;-36
2023/04/05 10:31:23;;;;;;;7.70;5.00;;;;;;;;;;108038;277;27311;-35
2023/04/05 10:34:19;;;;;;;8.40;5.10;;;;;;;;;;108074;278;34792;-36
2023/04/05 10:37:03;;;;;;;7.90;4.70;;;;;;;;;;108008;274;29789;-36
2023/04/05 10:39:48;;;;;;;7.50;5.20;;;;;;;;;;108048;281;28069;-35
2023/04/05 10:42:28;;;;;;;6.90;4.40;;;;;;;;;;108027;273;27192;-35
2023/04/05 10:45:10;;;;;;;7.40;4.60;;;;;;;;;;108011;281;28047;-35
2023/04/05 10:47:50;;;;;;;6.50;4.10;;;;;;;;;;108082;274;28432;-34
2023/04/05 10:50:27;;;;;;;6.40;4.20;;;;;;;;;;108020;280;28082;-34
2023/04/05 10:53:03;;;;;;;6.40;4.40;;;;;;;;;;108046;277;27219;-33
2023/04/05 10:55:41;;;;;;;7.00;4.30;;;;;;;;;;108041;274;29227;-33
2023/04/05 10:58:19;;;;;;;6.50;4.20;;;;;;;;;;108081;280;28616;-33
2023/04/05 11:01:00;;;;;;;5.90;3.90;;;;;;;;;;107983;273;175545;-33
2023/04/05 11:03:49;;;;;;;6.30;4.10;;;;;;;;;;108014;274;27302;-35
2023/04/05 11:06:33;;;;;;;6.30;3.80;;;;;;;;;;108068;274;28051;-35
2023/04/05 11:09:19;;;;;;;6.40;3.50;;;;;;;;;;108084;281;30066;-34
2023/04/05 11:11:56;;;;;;;6.30;3.60;;;;;;;;;;108022;274;28264;-34
2023/04/05 11:14:40;;;;;;;5.90;3.90;;;;;;;;;;108044;281;27204;-34
2023/04/05 11:17:29;;;;;;;5.90;3.60;;;;;;;;;;108051;273;28121;-33
2023/04/05 11:20:13;;;;;;;5.90;4.00;;;;;;;;;;108095;277;28603;-33
2023/04/05 11:22:59;;;;;;;6.50;3.90;;;;;;;;;;108077;281;27663;-33
2023/04/05 11:25:40;;;;;;;5.70;3.70;;;;;;;;;;108053;274;27209;-33
2023/04/05 11:28:36;;;;;;;5.90;3.90;;;;;;;;;;108046;281;28202;-33
2023/04/05 11:31:21;;;;;;;6.00;3.50;;;;;;;;;;108052;273;30674;-33
2023/04/05 11:34:09;;;;;;;5.60;3.60;;;;;;;;;;108049;281;28618;-33
2023/04/05 11:36:51;;;;;;;6.10;3.70;;;;;;;;;;108067;281;27296;-33
2023/04/05 11:39:30;;;;;;;6.30;3.70;;;;;;;;;;108072;280;28088;-33
2023/04/05 11:42:07;;;;;;;6.20;3.90;;;;;;;;;;107911;274;175586;-34
2023/04/05 11:44:51;;;;;;;6.30;3.70;;;;;;;;;;107997;281;28964;-34
2023/04/05 11:47:28;;;;;;;6.20;3.70;;;;;;;;;;108030;281;27175;-33
2023/04/05 11:50:04;;;;;;;6.00;3.50;;;;;;;;;;107994;273;28113;-33
2023/04/05 11:52:39;;;;;;;5.90;3.50;;;;;;;;;;108025;273;28876;-34
2023/04/05 11:55:13;;;;;;;5.10;3.30;;;;;;;;;;107987;273;27850;-33
2023/04/05 11:57:53;;;;;;;6.10;3.60;;;;;;;;;;108003;273;27178;-33
2023/04/05 12:00:32;;;;;;;6.10;3.30;;;;;;;;;;108037;274;28097;-34
2023/04/05 12:03:09;;;;;;;5.60;3.40;;;;;;;;;;108062;273;28654;-34
2023/04/05 12:05:52;;;;;;;6.30;3.60;;;;;;;;;;108041;280;27879;-34
2023/04/05 12:08:42;;;;;;;6.30;3.50;;;;;;;;;;108082;273;27248;-33
2023/04/05 12:11:16;;;;;;;5.00;3.10;;;;;;;;;;108070;280;27854;-35
2023/04/05 12:13:51;;;;;;;5.30;3.20;;;;;;;;;;108113;281;28576;-33
2023/04/05 12:16:30;;;;;;;5.50;3.10;;;;;;;;;;108055;280;28060;-34
2023/04/05 12:19:04;;;;;;;7.80;3.20;;;;;;;;;;108024;281;27253;-34
2023/04/05 12:21:41;;;;;;;5.50;3.40;;;;;;;;;;108113;281;29462;-34
2023/04/05 12:24:16;;;;;;;4.90;2.80;;;;;;;;;;108049;280;28584;-34
2023/04/05 12:26:55;;;;;;;5.40;3.20;;;;;;;;;;108063;283;28936;-34
2023/04/05 12:29:32;;;;;;;5.20;3.30;;;;;;;;;;108028;279;27277;-34
2023/04/05 12:32:06;;;;;;;5.50;3.30;;;;;;;;;;108080;280;29291;-35
2023/04/05 12:34:56;;;;;;;6.40;2.80;;;;;;;;;;107997;274;28562;-33
2023/04/05 12:37:32;;;;;;;5.10;3.00;;;;;;;;;;108050;274;27919;-33
2023/04/05 12:40:12;;;;;;;5.50;3.20;;;;;;;;;;108017;273;27400;-33
2023/04/05 12:42:50;;;;;;;5.80;3.00;;;;;;;;;;108061;280;28102;-33
2023/04/05 12:45:30;;;;;;;5.30;3.10;;;;;;;;;;107986;279;28398;-33
2023/04/05 12:48:07;;;;;;;5.40;2.80;;;;;;;;;;108073;273;27878;-33
2023/04/05 12:50:47;;;;;;;5.20;2.90;;;;;;;;;;107922;275;174538;-33
2023/04/05 12:53:27;;;;;;;5.10;2.90;;;;;;;;;;108060;274;28137;-33
2023/04/05 12:56:01;;;;;;;5.00;3.00;;;;;;;;;;108051;278;28430;-33
2023/04/05 12:58:39;;;;;;;5.20;2.90;;;;;;;;;;108057;281;27878;-33
2023/04/05 13:01:13;;;;;;;5.10;2.90;;;;;;;;;;108053;280;27154;-33
2023/04/05 13:03:51;;;;;;;4.90;2.90;;;;;;;;;;108111;280;28119;-34
2023/04/05 13:06:41;;;;;;;4.70;2.70;;;;;;;;;;108107;280;28708;-34
2023/04/05 13:09:16;;;;;;;5.20;2.70;;;;;;;;;;108071;281;27999;-34
2023/04/05 13:11:52;;;;;;;5.00;2.80;;;;;;;;;;108149;280;26965;-34
2023/04/05 13:14:27;;;;;;;5.40;2.80;;;;;;;;;;108015;280;175637;-34
2023/04/05 13:17:01;;;;;;;5.40;2.70;;;;;;;;;;108081;281;28375;-34
2023/04/05 13:19:37;;;;;;;5.60;3.00;;;;;;;;;;108131;280;28925;-34
2023/04/05 13:22:11;;;;;;;5.20;2.90;;;;;;;;;;108080;281;27671;-34
2023/04/05 13:24:48;;;;;;;4.80;2.70;;;;;;;;;;108141;280;27876;-34
2023/04/05 13:27:25;;;;;;;4.90;2.70;;;;;;;;;;107979;276;34418;-34
2023/04/05 13:30:00;;;;;;;5.20;3.10;;;;;;;;;;108106;280;27921;-33
2023/04/05 13:32:34;;;;;;;5.40;2.80;;;;;;;;;;107984;280;175591;-33
2023/04/05 13:35:14;;;;;;;5.10;2.80;;;;;;;;;;108111;280;28095;-33
2023/04/05 13:37:48;;;;;;;4.20;2.40;;;;;;;;;;108264;273;35764;-33
2023/04/05 13:40:31;;;;;;;5.40;2.60;;;;;;;;;;108115;280;28076;-33
2023/04/05 13:43:05;;;;;;;5.00;2.70;;;;;;;;;;108101;273;28302;-33
2023/04/05 13:45:41;;;;;;;5.10;2.90;;;;;;;;;;108134;273;29244;-33
2023/04/05 13:48:15;;;;;;;5.60;3.10;;;;;;;;;;108178;273;34901;-33
2023/04/05 13:50:57;;;;;;;4.90;2.80;;;;;;;;;;108154;280;27893;-33
2023/04/05 13:53:34;;;;;;;5.30;2.80;;;;;;;;;;108127;274;27778;-33
2023/04/05 13:56:10;;;;;;;4.70;2.40;;;;;;;;;;108074;281;28096;-33
2023/04/05 13:58:45;;;;;;;4.70;2.60;;;;;;;;;;108151;280;28377;-33
2023/04/05 14:01:22;;;;;;;4.80;2.80;;;;;;;;;;108098;282;28987;-33
2023/04/05 14:03:59;;;;;;;4.90;2.70;;;;;;;;;;108130;274;27192;-34
2023/04/05 14:06:33;;;;;;;6.00;2.90;;;;;;;;;;108143;280;28084;-34
2023/04/05 14:09:09;;;;;;;5.50;3.10;;;;;;;;;;108036;279;175636;-33
2023/04/05 14:11:44;;;;;;;5.00;2.70;;;;;;;;;;108086;280;29360;-33
2023/04/05 14:14:21;;;;;;;5.60;3.10;;;;;;;;;;108133;273;27218;-33
2023/04/05 14:17:01;;;;;;;5.50;3.00;;;;;;;;;;108076;280;28366;-33
2023/04/05 14:19:35;;;;;;;5.10;3.00;;;;;;;;;;108111;281;29725;-33
2023/04/05 14:22:15;;;;;;;5.10;2.90;;;;;;;;;;108138;273;27663;-33
2023/04/05 14:24:52;;;;;;;5.50;3.10;;;;;;;;;;108152;280;28270;-34
2023/04/05 14:27:28;;;;;;;4.50;2.80;;;;;;;;;;108107;281;28085;-34
2023/04/05 14:30:03;;;;;;;5.00;2.50;;;;;;;;;;108157;280;28689;-34
2023/04/05 14:32:38;;;;;;;6.20;3.00;;;;;;;;;;108015;281;175059;-34
2023/04/05 14:35:14;;;;;;;5.30;2.80;;;;;;;;;;108151;273;27229;-33
2023/04/05 14:37:49;;;;;;;4.90;2.70;;;;;;;;;;108118;273;29329;-33
2023/04/05 14:40:28;;;;;;;5.10;2.80;;;;;;;;;;108124;281;28822;-33
2023/04/05 14:43:02;;;;;;;5.70;2.80;;;;;;;;;;108084;281;29088;-33
2023/04/05 14:45:43;;;;;;;5.00;2.40;;;;;;;;;;108163;273;27201;-33
2023/04/05 14:48:21;;;;;;;5.50;2.70;;;;;;;;;;108084;273;27891;-31
2023/04/05 14:50:55;;;;;;;4.60;2.60;;;;;;;;;;108077;281;29809;-31
2023/04/05 14:53:33;;;;;;;5.60;2.90;;;;;;;;;;108019;281;29033;-31
2023/04/05 14:56:12;;;;;;;5.20;2.90;;;;;;;;;;108063;280;28450;-31
2023/04/05 14:58:45;;;;;;;5.40;2.60;;;;;;;;;;108039;280;29242;-31
2023/04/05 15:01:19;;;;;;;5.30;2.80;;;;;;;;;;108036;281;28638;-31
2023/04/05 15:03:58;;;;;;;5.90;2.60;;;;;;;;;;108031;280;27927;-31
2023/04/05 15:06:36;;;;;;;5.90;2.90;;;;;;;;;;108032;280;27366;-31
2023/04/05 15:09:13;;;;;;;5.40;2.40;;;;;;;;;;107987;281;28095;-31
2023/04/05 15:11:47;;;;;;;5.50;2.80;;;;;;;;;;108069;281;29181;-31
2023/04/05 15:14:21;;;;;;;5.30;2.60;;;;;;;;;;108040;274;27880;-31
2023/04/05 15:17:05;;;;;;;5.10;2.80;;;;;;;;;;108052;274;27180;-31
2023/04/05 15:19:40;;;;;;;5.00;2.80;;;;;;;;;;107985;273;28094;-31
2023/04/05 15:22:16;;;;;;;4.90;2.50;;;;;;;;;;108066;281;28587;-31
2023/04/05 15:24:51;;;;;;;5.10;2.80;;;;;;;;;;108037;273;28013;-31
2023/04/05 15:27:31;;;;;;;5.20;2.50;;;;;;;;;;108062;273;27281;-31
2023/04/05 15:30:10;;;;;;;5.70;2.60;;;;;;;;;;108013;277;34144;-31
2023/04/05 15:32:46;;;;;;;5.10;2.50;;;;;;;;;;107999;273;29885;-31
2023/04/05 15:35:22;;;;;;;4.80;2.20;;;;;;;;;;108044;279;28003;-31
2023/04/05 15:38:02;;;;;;;4.70;2.30;;;;;;;;;;108014;274;27384;-31